Time;durP1;ratioP1;P1;durP2;ratioP2;P2;SDS_P1;SDS_P2;PMS_P1;PMS_P2;Temp;Humidity;BMP_temperature;BMP_pressure;BME280_temperature;BME280_humidity;BME280_pressure;Samples;Min_cycle;Max_cycle;Signal;HPM_P1;HPM_P2
2021/06/05 00:01:54;;;;;;;5.77;5.27;;;18.40;99.90;;;;;;5015938;28;20434;-78
2021/06/05 00:04:23;;;;;;;6.40;5.80;;;18.50;99.90;;;;;;5031147;28;20417;-77
2021/06/05 00:06:50;;;;;;;5.53;5.03;;;18.40;99.90;;;;;;5028339;28;20418;-77
2021/06/05 00:09:17;;;;;;;6.60;5.73;;;18.30;99.90;;;;;;5016207;28;20519;-77
2021/06/05 00:11:45;;;;;;;8.00;5.17;;;18.30;99.90;;;;;;5015932;28;20473;-78
2021/06/05 00:14:13;;;;;;;6.70;5.53;;;18.30;99.90;;;;;;5015680;28;20814;-77
2021/06/05 00:16:42;;;;;;;6.63;5.90;;;18.20;99.90;;;;;;5015282;28;20794;-78
2021/06/05 00:19:11;;;;;;;5.27;4.80;;;18.20;99.90;;;;;;5016665;28;20522;-78
2021/06/05 00:21:37;;;;;;;7.00;5.43;;;18.20;99.90;;;;;;5017773;28;20545;-76
2021/06/05 00:24:05;;;;;;;6.17;5.57;;;18.20;99.90;;;;;;5016136;28;21012;-77
2021/06/05 00:26:31;;;;;;;5.20;4.63;;;18.20;99.90;;;;;;5016981;28;20569;-78
2021/06/05 00:28:59;;;;;;;6.60;5.30;;;18.20;99.90;;;;;;5015624;28;20449;-78
2021/06/05 00:31:26;;;;;;;5.90;5.30;;;18.10;99.90;;;;;;5021618;28;20445;-78
2021/06/05 00:33:53;;;;;;;6.30;5.20;;;18.10;99.90;;;;;;5034168;28;20458;-78
2021/06/05 00:36:19;;;;;;;5.50;5.00;;;18.10;99.90;;;;;;5034774;28;20485;-77
2021/06/05 00:38:46;;;;;;;5.27;4.87;;;18.20;99.90;;;;;;5032557;28;20599;-78
2021/06/05 00:41:16;;;;;;;6.30;4.47;;;18.10;99.90;;;;;;5035135;28;20425;-78
2021/06/05 00:43:46;;;;;;;5.17;4.67;;;18.10;99.90;;;;;;5034957;28;20408;-78
2021/06/05 00:46:16;;;;;;;7.00;5.73;;;18.10;99.90;;;;;;5022846;28;20475;-77
2021/06/05 00:48:43;;;;;;;5.10;4.60;;;18.10;99.90;;;;;;5020299;28;20451;-78
2021/06/05 00:51:11;;;;;;;5.80;5.30;;;18.10;99.90;;;;;;5031050;28;20425;-77
2021/06/05 00:53:38;;;;;;;5.23;4.73;;;18.10;99.90;;;;;;5015465;28;20497;-78
2021/06/05 00:56:08;;;;;;;5.20;4.70;;;18.10;99.90;;;;;;5028474;28;20457;-78
2021/06/05 00:58:35;;;;;;;6.20;4.70;;;18.20;99.90;;;;;;5028702;28;20425;-79
2021/06/05 01:01:05;;;;;;;5.23;4.83;;;18.20;99.90;;;;;;5026636;28;20526;-77
2021/06/05 01:03:34;;;;;;;4.70;4.30;;;18.20;99.90;;;;;;5014993;28;20826;-77
2021/06/05 01:06:13;;;;;;;5.83;4.20;;;18.10;99.90;;;;;;5014484;28;20447;-77
2021/06/05 01:08:47;;;;;;;6.97;4.40;;;18.10;99.90;;;;;;5013967;28;20573;-77
2021/06/05 01:11:21;;;;;;;6.80;4.60;;;18.10;99.90;;;;;;5016275;28;20462;-76
2021/06/05 01:13:54;;;;;;;6.07;4.70;;;18.10;99.90;;;;;;5014303;28;20605;-77
2021/06/05 01:16:23;;;;;;;5.67;4.87;;;18.00;99.90;;;;;;5014977;28;20503;-78
2021/06/05 01:18:56;;;;;;;5.80;4.03;;;18.10;99.90;;;;;;5013898;28;20583;-78
2021/06/05 01:21:36;;;;;;;3.77;3.47;;;18.00;99.90;;;;;;5013994;28;20482;-78
2021/06/05 01:24:12;;;;;;;4.70;3.47;;;18.10;99.90;;;;;;5031742;28;20473;-78
2021/06/05 01:26:43;;;;;;;3.20;2.90;;;18.10;99.90;;;;;;5035853;28;20474;-78
2021/06/05 01:29:16;;;;;;;5.40;2.63;;;18.10;99.90;;;;;;5036533;28;20478;-78
2021/06/05 01:31:45;;;;;;;5.50;3.00;;;18.10;99.90;;;;;;5019592;28;20471;-78
2021/06/05 01:34:13;;;;;;;3.47;3.17;;;18.10;99.80;;;;;;5012087;28;20437;-78
2021/06/05 01:36:46;;;;;;;7.87;3.30;;;18.10;99.20;;;;;;5012729;28;20524;-77
2021/06/05 01:39:16;;;;;;;3.33;3.10;;;18.00;99.00;;;;;;5013206;28;20545;-78
2021/06/05 01:41:46;;;;;;;3.90;3.60;;;18.00;99.30;;;;;;5013126;28;20483;-78
2021/06/05 01:44:14;;;;;;;3.40;3.20;;;17.90;99.70;;;;;;5013205;28;20519;-77
2021/06/05 01:46:44;;;;;;;3.10;2.87;;;18.00;99.90;;;;;;5020195;28;20528;-78
2021/06/05 01:49:11;;;;;;;3.63;3.27;;;18.00;99.90;;;;;;5019789;28;20430;-78
2021/06/05 01:51:39;;;;;;;4.73;3.30;;;17.90;99.90;;;;;;5014140;28;20455;-79
2021/06/05 01:54:10;;;;;;;3.93;3.30;;;17.90;99.90;;;;;;5015604;28;20495;-79
2021/06/05 01:56:43;;;;;;;3.43;3.13;;;18.00;99.90;;;;;;5021004;28;20453;-79
2021/06/05 01:59:13;;;;;;;3.77;3.00;;;18.00;99.90;;;;;;5033324;28;20492;-79
2021/06/05 02:01:40;;;;;;;3.00;2.80;;;18.00;99.90;;;;;;5037698;28;20556;-79
2021/06/05 02:04:07;;;;;;;3.93;2.70;;;18.00;99.70;;;;;;5038537;28;20434;-79
2021/06/05 02:06:34;;;;;;;3.00;2.70;;;18.00;98.70;;;;;;5040218;28;20440;-79
2021/06/05 02:09:02;;;;;;;3.77;2.90;;;18.00;98.20;;;;;;5060287;22;20444;-78
2021/06/05 02:11:30;;;;;;;3.07;2.70;;;18.00;98.20;;;;;;5018297;28;20445;-79
2021/06/05 02:14:01;;;;;;;3.33;2.67;;;18.00;98.20;;;;;;5027149;28;20541;-79
2021/06/05 02:16:33;;;;;;;3.90;3.27;;;18.00;97.60;;;;;;5019518;28;20472;-78
2021/06/05 02:19:05;;;;;;;2.97;2.40;;;18.10;97.90;;;;;;5020902;28;20468;-79
2021/06/05 02:21:35;;;;;;;3.47;2.40;;;18.00;97.60;;;;;;5021101;28;20483;-77
2021/06/05 02:24:06;;;;;;;3.73;2.97;;;18.00;97.70;;;;;;5024186;28;20500;-79
2021/06/05 02:26:35;;;;;;;3.30;2.53;;;18.00;97.90;;;;;;5027497;28;20451;-78
2021/06/05 02:29:04;;;;;;;2.60;2.27;;;18.00;97.60;;;;;;5019282;28;20463;-78
2021/06/05 02:31:32;;;;;;;3.13;2.63;;;17.90;98.20;;;;;;5019152;28;20762;-78
2021/06/05 02:33:59;;;;;;;3.37;2.80;;;17.90;98.20;;;;;;5016650;28;20482;-78
2021/06/05 02:36:26;;;;;;;2.60;2.40;;;17.90;98.70;;;;;;5016373;28;20590;-78
2021/06/05 02:38:53;;;;;;;3.07;2.83;;;17.80;99.10;;;;;;5016143;28;20436;-78
2021/06/05 02:41:22;;;;;;;3.33;3.03;;;17.70;99.30;;;;;;5026175;28;20466;-78
2021/06/05 02:43:53;;;;;;;5.93;2.90;;;17.70;99.80;;;;;;5034509;28;20466;-78
2021/06/05 02:46:22;;;;;;;4.40;3.50;;;17.60;99.90;;;;;;5024802;28;20609;-78
2021/06/05 02:48:55;;;;;;;3.00;2.70;;;17.60;99.90;;;;;;5020573;28;20466;-78
2021/06/05 02:51:25;;;;;;;4.17;3.00;;;17.60;99.90;;;;;;5018088;28;20466;-78
2021/06/05 02:53:52;;;;;;;3.43;3.13;;;17.50;99.90;;;;;;5016017;28;20517;-78
2021/06/05 02:56:19;;;;;;;3.87;2.80;;;17.50;99.90;;;;;;5015617;28;20461;-78
2021/06/05 02:58:45;;;;;;;3.33;3.00;;;17.40;99.90;;;;;;5015673;28;20530;-77
2021/06/05 03:01:12;;;;;;;4.43;3.27;;;17.40;99.90;;;;;;5015806;28;20507;-78
2021/06/05 03:03:39;;;;;;;4.87;3.20;;;17.40;99.90;;;;;;5015975;28;20472;-78
2021/06/05 03:06:08;;;;;;;5.10;3.10;;;17.40;99.90;;;;;;5015516;28;20457;-78
2021/06/05 03:08:39;;;;;;;3.73;3.30;;;17.30;99.90;;;;;;5028282;28;20429;-79
2021/06/05 03:11:08;;;;;;;3.27;2.97;;;17.30;99.90;;;;;;5016244;28;20492;-78
2021/06/05 03:13:35;;;;;;;4.00;3.40;;;17.30;99.90;;;;;;5015662;28;20993;-78
2021/06/05 03:16:02;;;;;;;2.93;2.73;;;17.30;99.90;;;;;;5015668;28;20503;-78
2021/06/05 03:18:29;;;;;;;3.70;3.00;;;17.30;99.90;;;;;;5016274;28;20461;-78
2021/06/05 03:20:57;;;;;;;5.20;3.50;;;17.30;99.90;;;;;;5019078;28;20594;-79
2021/06/05 03:23:27;;;;;;;8.57;3.70;;;17.30;99.90;;;;;;5019131;28;20816;-78
2021/06/05 03:25:54;;;;;;;5.00;3.73;;;17.30;99.90;;;;;;5019297;28;20534;-78
2021/06/05 03:28:24;;;;;;;3.40;3.10;;;17.30;99.90;;;;;;5016597;28;20549;-79
2021/06/05 03:30:51;;;;;;;5.53;3.30;;;17.20;99.90;;;;;;5016604;28;20449;-78
2021/06/05 03:33:17;;;;;;;3.37;3.07;;;17.30;99.90;;;;;;5016031;28;20454;-78
2021/06/05 03:35:44;;;;;;;3.63;3.33;;;17.20;99.90;;;;;;5014852;28;20486;-77
2021/06/05 03:38:11;;;;;;;4.80;3.90;;;17.20;99.90;;;;;;5016259;28;20490;-78
2021/06/05 03:40:39;;;;;;;3.47;3.20;;;17.20;99.90;;;;;;5029177;28;20477;-78
2021/06/05 03:43:06;;;;;;;4.23;3.57;;;17.20;99.90;;;;;;5034989;28;20460;-78
2021/06/05 03:45:33;;;;;;;4.40;3.20;;;17.20;99.90;;;;;;5019211;28;20516;-78
2021/06/05 03:48:00;;;;;;;3.17;2.87;;;17.20;99.90;;;;;;5015094;28;20493;-78
2021/06/05 03:50:29;;;;;;;3.50;3.20;;;17.20;99.90;;;;;;5017228;28;20865;-78
2021/06/05 03:52:56;;;;;;;3.80;3.50;;;17.20;99.90;;;;;;5015459;28;20520;-78
2021/06/05 03:55:23;;;;;;;4.63;3.00;;;17.20;99.90;;;;;;5015524;28;20497;-78
2021/06/05 03:57:51;;;;;;;4.67;3.60;;;17.20;99.90;;;;;;5017554;28;20486;-79
2021/06/05 04:00:21;;;;;;;6.13;2.80;;;17.20;99.90;;;;;;5020408;28;20500;-77
2021/06/05 04:02:47;;;;;;;4.30;3.47;;;17.20;99.90;;;;;;5021455;28;20924;-79
2021/06/05 04:05:14;;;;;;;4.83;3.20;;;17.20;99.90;;;;;;5019232;28;20524;-78
2021/06/05 04:07:41;;;;;;;4.17;3.63;;;17.20;99.90;;;;;;5021081;28;20445;-79
2021/06/05 04:10:10;;;;;;;4.90;3.80;;;17.20;99.90;;;;;;5019614;28;20474;-78
2021/06/05 04:12:36;;;;;;;5.40;3.47;;;17.30;99.90;;;;;;5017889;28;21008;-79
2021/06/05 04:15:07;;;;;;;3.47;3.17;;;17.30;99.90;;;;;;5016060;28;20923;-79
2021/06/05 04:17:33;;;;;;;4.30;3.40;;;17.30;99.90;;;;;;5017172;28;20439;-78
2021/06/05 04:19:59;;;;;;;4.50;3.30;;;17.30;99.90;;;;;;5017987;28;20548;-78
2021/06/05 04:22:26;;;;;;;4.50;3.47;;;17.30;99.90;;;;;;5015962;28;20968;-79
2021/06/05 04:24:52;;;;;;;5.60;3.70;;;17.40;99.90;;;;;;5021007;28;20455;-78
2021/06/05 04:27:19;;;;;;;4.20;3.40;;;17.40;99.90;;;;;;5015982;28;20459;-78
2021/06/05 04:29:45;;;;;;;3.57;3.27;;;17.50;99.90;;;;;;5024104;28;20517;-79
2021/06/05 04:32:14;;;;;;;7.93;3.40;;;17.60;99.90;;;;;;5035245;28;20421;-79
2021/06/05 04:34:40;;;;;;;4.77;3.20;;;17.70;99.90;;;;;;5024289;28;20433;-78
2021/06/05 04:37:06;;;;;;;4.10;3.10;;;17.80;99.90;;;;;;5015386;28;20448;-78
2021/06/05 04:39:33;;;;;;;7.73;5.10;;;17.90;99.10;;;;;;5014723;28;20857;-78
2021/06/05 04:42:00;;;;;;;2.90;2.60;;;18.00;97.90;;;;;;5015474;28;20454;-78
2021/06/05 04:44:26;;;;;;;6.93;2.90;;;18.40;97.50;;;;;;5021108;28;20498;-78
2021/06/05 04:46:52;;;;;;;3.90;3.20;;;18.80;94.20;;;;;;5029995;28;20465;-78
2021/06/05 04:49:28;;;;;;;2.70;2.50;;;19.60;92.70;;;;;;5026061;28;20469;-78
2021/06/05 04:51:55;;;;;;;4.10;2.63;;;20.70;82.10;;;;;;5017756;28;20465;-77
2021/06/05 04:54:24;;;;;;;4.43;2.03;;;21.80;72.20;;;;;;5017195;28;20465;-77
2021/06/05 04:56:51;;;;;;;4.90;2.80;;;22.90;63.90;;;;;;5020187;28;20904;-78
2021/06/05 04:59:21;;;;;;;2.37;2.10;;;23.40;57.60;;;;;;5018347;28;20490;-78
2021/06/05 05:01:48;;;;;;;3.60;2.23;;;24.00;55.40;;;;;;5018439;28;20431;-78
2021/06/05 05:04:15;;;;;;;2.20;2.07;;;24.60;53.30;;;;;;5017419;28;20474;-77
2021/06/05 05:06:43;;;;;;;5.80;2.33;;;24.80;53.40;;;;;;5015553;28;20430;-77
2021/06/05 05:09:11;;;;;;;3.73;2.23;;;24.70;52.80;;;;;;5015601;28;20432;-78
2021/06/05 05:11:38;;;;;;;4.00;2.63;;;24.40;52.00;;;;;;5015254;28;20457;-78
2021/06/05 05:14:05;;;;;;;7.13;2.37;;;24.20;51.30;;;;;;5014539;28;20539;-78
2021/06/05 05:16:32;;;;;;;3.73;2.27;;;23.30;52.30;;;;;;5014332;28;20505;-79
2021/06/05 05:18:59;;;;;;;4.20;2.40;;;22.40;57.50;;;;;;5014578;28;20521;-79
2021/06/05 05:21:26;;;;;;;9.63;2.43;;;21.70;60.50;;;;;;5013521;28;20974;-80
2021/06/05 05:23:57;;;;;;;5.60;3.10;;;21.30;64.40;;;;;;5014017;28;20568;-78
2021/06/05 05:26:24;;;;;;;3.53;2.20;;;20.80;68.50;;;;;;5016054;28;20401;-79
2021/06/05 05:28:53;;;;;;;3.57;3.20;;;20.40;71.30;;;;;;5018963;28;20406;-78
2021/06/05 05:31:22;;;;;;;6.03;3.00;;;20.00;73.70;;;;;;5020000;28;20521;-78
2021/06/05 05:33:48;;;;;;;3.57;2.97;;;19.70;76.50;;;;;;5017818;28;20466;-78
2021/06/05 05:36:18;;;;;;;2.90;2.70;;;19.40;78.90;;;;;;5018197;28;20564;-77
2021/06/05 05:38:45;;;;;;;5.00;3.10;;;19.30;81.40;;;;;;5017775;28;20494;-78
2021/06/05 05:41:16;;;;;;;2.87;2.60;;;19.30;82.60;;;;;;5017538;28;20479;-79
2021/06/05 05:43:43;;;;;;;4.60;2.70;;;19.20;83.40;;;;;;5018050;28;20489;-79
2021/06/05 05:46:10;;;;;;;4.03;3.00;;;19.20;84.50;;;;;;5020828;28;20457;-79
2021/06/05 05:48:39;;;;;;;5.83;3.10;;;19.10;84.60;;;;;;5030538;28;20789;-77
2021/06/05 05:51:08;;;;;;;3.07;2.60;;;19.00;84.50;;;;;;5030953;28;20829;-76
2021/06/05 05:53:36;;;;;;;5.83;2.63;;;19.00;85.90;;;;;;5017667;28;20436;-78
2021/06/05 05:56:03;;;;;;;2.77;2.57;;;19.00;86.20;;;;;;5016482;28;20960;-77
2021/06/05 05:58:34;;;;;;;3.33;2.37;;;19.00;86.80;;;;;;5016178;28;20879;-78
2021/06/05 06:01:01;;;;;;;2.50;2.10;;;19.00;87.40;;;;;;5016503;28;20529;-78
2021/06/05 06:03:29;;;;;;;3.37;2.70;;;19.00;86.50;;;;;;5017668;28;20605;-78
2021/06/05 06:05:55;;;;;;;2.70;2.23;;;19.00;85.90;;;;;;5018659;28;20524;-77
2021/06/05 06:08:22;;;;;;;3.47;1.70;;;19.00;85.80;;;;;;5019915;28;20466;-79
2021/06/05 06:10:49;;;;;;;3.20;2.50;;;19.10;84.60;;;;;;5018977;28;20965;-78
2021/06/05 06:13:16;;;;;;;3.30;2.10;;;19.10;84.60;;;;;;5019089;28;20469;-78
2021/06/05 06:15:44;;;;;;;4.63;2.30;;;19.20;84.70;;;;;;5024036;28;20479;-79
2021/06/05 06:18:13;;;;;;;2.20;2.10;;;19.30;84.10;;;;;;5022670;28;20569;-78
2021/06/05 06:20:43;;;;;;;2.20;2.00;;;19.30;84.20;;;;;;5018141;28;20991;-78
2021/06/05 06:23:11;;;;;;;2.97;2.37;;;19.40;83.90;;;;;;5015943;28;21017;-76
2021/06/05 06:25:40;;;;;;;4.70;2.20;;;19.50;82.80;;;;;;5016642;28;20417;-78
2021/06/05 06:28:08;;;;;;;5.80;2.90;;;19.60;80.90;;;;;;5016572;28;20466;-78
2021/06/05 06:30:36;;;;;;;3.00;2.43;;;19.80;80.20;;;;;;5016281;28;20441;-77
2021/06/05 06:33:07;;;;;;;4.17;1.90;;;19.90;78.40;;;;;;5015494;28;20452;-77
2021/06/05 06:35:35;;;;;;;2.43;2.23;;;20.10;76.80;;;;;;5015990;28;20591;-77
2021/06/05 06:38:02;;;;;;;2.57;2.00;;;20.30;77.00;;;;;;5016294;28;20532;-78
2021/06/05 06:40:32;;;;;;;3.60;2.13;;;20.50;74.80;;;;;;5016516;28;20511;-78
2021/06/05 06:42:59;;;;;;;2.97;2.20;;;20.70;72.80;;;;;;5016531;28;20513;-79
2021/06/05 06:45:26;;;;;;;6.20;2.60;;;20.90;71.90;;;;;;5022163;28;20484;-79
2021/06/05 06:47:53;;;;;;;6.00;2.73;;;20.90;71.20;;;;;;5025750;28;20471;-78
2021/06/05 06:50:24;;;;;;;5.63;2.30;;;21.20;70.40;;;;;;5016128;28;20995;-78
2021/06/05 06:52:50;;;;;;;3.00;2.70;;;21.20;69.60;;;;;;5015698;28;20535;-76
2021/06/05 06:55:17;;;;;;;2.57;2.10;;;21.40;69.10;;;;;;5015512;28;21083;-78
2021/06/05 06:57:44;;;;;;;2.70;2.23;;;21.50;69.00;;;;;;5017362;28;20458;-79
2021/06/05 07:00:14;;;;;;;2.67;2.17;;;21.60;67.00;;;;;;5018016;28;20536;-79
2021/06/05 07:02:41;;;;;;;2.43;2.00;;;21.80;65.90;;;;;;5019518;28;20815;-79
2021/06/05 07:05:08;;;;;;;2.27;2.00;;;21.90;65.80;;;;;;5019828;28;20497;-78
2021/06/05 07:07:36;;;;;;;2.80;2.27;;;22.10;65.50;;;;;;5019376;28;20549;-78
2021/06/05 07:10:05;;;;;;;4.03;2.00;;;22.30;64.00;;;;;;5017976;28;21014;-79
2021/06/05 07:12:32;;;;;;;2.40;2.30;;;22.40;63.10;;;;;;5016355;28;20919;-78
2021/06/05 07:14:58;;;;;;;4.33;2.10;;;22.60;61.90;;;;;;5017817;28;20468;-78
2021/06/05 07:17:24;;;;;;;4.30;2.47;;;22.60;62.00;;;;;;5026735;28;20444;-77
2021/06/05 07:19:51;;;;;;;3.60;2.60;;;22.50;60.90;;;;;;5029729;28;20471;-76
2021/06/05 07:22:17;;;;;;;2.30;2.10;;;22.50;60.90;;;;;;5038657;28;20425;-77
2021/06/05 07:24:45;;;;;;;4.90;2.43;;;22.70;61.00;;;;;;5037561;28;20431;-78
2021/06/05 07:27:11;;;;;;;3.70;2.17;;;22.80;61.10;;;;;;5037576;28;20428;-78
2021/06/05 07:29:38;;;;;;;3.07;2.00;;;22.90;60.60;;;;;;5034862;28;20488;-79
2021/06/05 07:32:06;;;;;;;2.47;2.27;;;23.00;60.20;;;;;;5030065;28;20463;-79
2021/06/05 07:34:34;;;;;;;2.40;2.20;;;23.20;57.80;;;;;;5020798;28;21105;-79
2021/06/05 07:37:05;;;;;;;2.80;2.50;;;23.20;58.50;;;;;;5022451;28;20465;-78
2021/06/05 07:39:32;;;;;;;3.93;2.60;;;23.20;58.50;;;;;;5025211;28;20482;-79
2021/06/05 07:42:01;;;;;;;3.00;2.67;;;23.10;57.90;;;;;;5028175;28;20429;-78
2021/06/05 07:44:29;;;;;;;3.20;2.50;;;23.00;57.90;;;;;;5021264;28;20443;-79
2021/06/05 07:46:58;;;;;;;3.43;2.60;;;22.70;58.60;;;;;;5024669;28;20458;-78
2021/06/05 07:49:25;;;;;;;3.10;2.80;;;22.70;60.00;;;;;;5022413;28;20457;-78
2021/06/05 07:51:52;;;;;;;3.77;2.60;;;22.40;62.00;;;;;;5027152;28;20451;-79
2021/06/05 07:54:19;;;;;;;3.30;2.47;;;22.30;61.90;;;;;;5023782;28;20422;-78
2021/06/05 07:56:48;;;;;;;4.43;2.80;;;21.80;63.90;;;;;;5024910;28;20762;-79
2021/06/05 07:59:17;;;;;;;3.20;2.67;;;21.80;65.20;;;;;;5030258;28;20497;-78
2021/06/05 08:01:44;;;;;;;4.13;2.70;;;21.80;65.60;;;;;;5034710;28;20462;-76
2021/06/05 08:04:11;;;;;;;2.83;2.37;;;21.80;66.00;;;;;;5032220;28;20436;-78
2021/06/05 08:06:42;;;;;;;6.37;2.90;;;21.80;66.00;;;;;;5031152;28;20508;-78
2021/06/05 08:09:09;;;;;;;3.00;2.80;;;21.60;65.20;;;;;;5026656;28;20472;-78
2021/06/05 08:11:37;;;;;;;4.93;2.90;;;21.50;66.50;;;;;;5029584;22;20505;-76
2021/06/05 08:14:05;;;;;;;6.40;3.13;;;21.40;67.60;;;;;;5018541;28;20462;-76
2021/06/05 08:16:36;;;;;;;5.60;2.90;;;21.20;68.90;;;;;;5014483;28;20472;-76
2021/06/05 08:19:03;;;;;;;2.90;2.70;;;21.20;70.60;;;;;;5013879;28;20436;-76
2021/06/05 08:21:30;;;;;;;6.77;3.50;;;21.10;70.30;;;;;;5016498;28;20520;-76
2021/06/05 08:23:56;;;;;;;5.80;3.10;;;21.30;70.10;;;;;;5014476;28;20458;-76
2021/06/05 08:26:23;;;;;;;3.40;3.03;;;21.40;69.10;;;;;;5016951;28;20478;-77
2021/06/05 08:28:49;;;;;;;2.70;2.50;;;21.60;68.10;;;;;;5016290;28;20453;-74
2021/06/05 08:31:18;;;;;;;3.47;2.93;;;22.00;66.50;;;;;;5024947;28;20448;-76
2021/06/05 08:33:47;;;;;;;3.37;3.07;;;22.30;64.10;;;;;;5022012;28;20455;-77
2021/06/05 08:36:16;;;;;;;3.67;3.00;;;22.60;63.00;;;;;;5014373;28;20461;-76
2021/06/05 08:38:43;;;;;;;3.37;3.07;;;23.00;61.30;;;;;;5013669;28;20507;-77
2021/06/05 08:41:17;;;;;;;5.53;3.00;;;23.30;58.50;;;;;;5013891;28;20449;-75
2021/06/05 08:43:47;;;;;;;3.10;2.80;;;23.80;56.50;;;;;;5020072;28;20424;-78
2021/06/05 08:46:17;;;;;;;4.13;2.60;;;24.20;55.30;;;;;;5029719;28;20455;-78
2021/06/05 08:48:45;;;;;;;5.40;2.53;;;24.40;53.00;;;;;;5031775;28;20451;-76
2021/06/05 08:51:20;;;;;;;3.00;2.70;;;24.60;53.20;;;;;;5025739;28;20446;-76
2021/06/05 08:53:47;;;;;;;3.00;2.80;;;24.40;53.00;;;;;;5012588;28;20871;-76
2021/06/05 08:56:17;;;;;;;2.83;2.47;;;24.20;52.80;;;;;;5015915;28;20523;-76
2021/06/05 08:58:46;;;;;;;2.80;2.60;;;24.00;52.60;;;;;;5018082;28;20470;-75
2021/06/05 09:01:16;;;;;;;2.33;2.23;;;23.90;53.00;;;;;;5017095;28;20482;-76
2021/06/05 09:03:47;;;;;;;4.70;3.10;;;23.60;55.20;;;;;;5014964;28;20820;-75
2021/06/05 09:06:18;;;;;;;2.97;2.77;;;23.70;54.70;;;;;;5016413;28;20774;-75
2021/06/05 09:08:45;;;;;;;4.00;3.10;;;23.70;55.10;;;;;;5021501;28;20438;-75
2021/06/05 09:11:14;;;;;;;3.57;2.90;;;23.70;54.50;;;;;;5029933;28;20474;-76
2021/06/05 09:13:41;;;;;;;3.10;2.90;;;23.70;53.70;;;;;;5032859;28;20452;-76
2021/06/05 09:16:36;;;;;;;3.60;3.30;;;23.50;53.60;;;;;;5028299;28;20486;-76
2021/06/05 09:19:14;;;;;;;6.97;3.10;;;23.60;54.70;;;;;;5029142;28;20474;-75
2021/06/05 09:21:44;;;;;;;3.93;3.37;;;23.80;53.00;;;;;;5031080;28;20468;-75
2021/06/05 09:24:18;;;;;;;3.13;2.80;;;24.00;53.00;;;;;;5033140;28;20509;-75
2021/06/05 09:26:47;;;;;;;2.80;2.60;;;24.30;52.90;;;;;;5029784;28;20483;-75
2021/06/05 09:29:17;;;;;;;3.97;2.90;;;24.60;51.80;;;;;;5031427;28;20457;-79
2021/06/05 09:31:57;;;;;;;2.80;2.53;;;24.90;50.60;;;;;;5036718;28;20438;-77
2021/06/05 09:34:32;;;;;;;3.13;2.83;;;25.30;47.50;;;;;;5036623;28;20444;-78
2021/06/05 09:36:58;;;;;;;3.20;3.00;;;25.40;48.50;;;;;;5036348;28;20485;-75
2021/06/05 09:39:41;;;;;;;3.07;2.77;;;25.60;47.20;;;;;;5036611;28;20503;-74
2021/06/05 09:42:10;;;;;;;3.30;2.80;;;25.80;47.30;;;;;;5034454;28;20524;-75
2021/06/05 09:44:44;;;;;;;3.90;2.90;;;25.70;46.70;;;;;;5031186;28;20543;-75
2021/06/05 09:47:27;;;;;;;2.93;2.40;;;25.80;45.70;;;;;;5029839;28;20457;-75
2021/06/05 09:50:15;;;;;;;3.07;2.80;;;25.60;46.90;;;;;;5029953;28;20538;-74
2021/06/05 09:52:41;;;;;;;5.90;2.87;;;25.70;47.40;;;;;;5026202;28;20442;-77
2021/06/05 09:55:29;;;;;;;3.63;3.13;;;26.10;45.60;;;;;;5019292;28;20437;-75
2021/06/05 09:57:58;;;;;;;3.40;2.50;;;26.40;44.50;;;;;;5015695;28;21000;-76
2021/06/05 10:00:28;;;;;;;3.90;3.50;;;26.30;44.40;;;;;;5014418;28;20460;-76
2021/06/05 10:03:13;;;;;;;3.03;2.70;;;26.30;44.40;;;;;;5013400;28;20442;-78
2021/06/05 10:05:43;;;;;;;2.70;2.50;;;26.30;44.40;;;;;;5013644;28;20454;-77
2021/06/05 10:08:34;;;;;;;2.50;2.30;;;26.00;44.20;;;;;;5014035;28;20530;-76
2021/06/05 10:11:09;;;;;;;2.70;2.50;;;25.80;44.00;;;;;;5012972;28;20501;-77
2021/06/05 10:13:42;;;;;;;4.70;2.70;;;26.20;44.30;;;;;;5013086;28;20466;-76
2021/06/05 10:16:12;;;;;;;3.13;2.43;;;26.20;44.40;;;;;;5017159;28;20465;-76
2021/06/05 10:18:43;;;;;;;3.30;2.80;;;26.40;43.50;;;;;;5016061;28;20549;-77
2021/06/05 10:21:20;;;;;;;2.37;2.20;;;26.40;43.20;;;;;;5017106;28;20494;-77
2021/06/05 10:23:50;;;;;;;4.87;2.30;;;26.00;44.20;;;;;;5016529;28;20461;-78
2021/06/05 10:26:23;;;;;;;2.40;2.20;;;26.50;43.40;;;;;;5016329;28;20605;-75
2021/06/05 10:28:55;;;;;;;4.40;2.70;;;26.40;44.50;;;;;;5017677;28;20541;-76
2021/06/05 10:31:23;;;;;;;6.33;2.47;;;26.30;43.20;;;;;;5018256;28;20490;-76
2021/06/05 10:33:53;;;;;;;2.70;2.50;;;26.60;42.90;;;;;;5015490;28;20460;-76
2021/06/05 10:36:24;;;;;;;5.67;2.60;;;26.40;44.70;;;;;;5015450;28;20497;-76
2021/06/05 10:38:54;;;;;;;5.07;2.50;;;26.30;44.40;;;;;;5015349;28;20795;-76
2021/06/05 10:41:23;;;;;;;3.13;1.93;;;26.50;44.60;;;;;;5015411;28;20501;-75
2021/06/05 10:43:50;;;;;;;2.17;1.87;;;26.60;44.30;;;;;;5021999;28;20531;-74
2021/06/05 10:46:38;;;;;;;2.73;1.97;;;26.50;43.50;;;;;;5030580;28;20844;-75
2021/06/05 10:49:09;;;;;;;3.97;2.07;;;26.50;44.50;;;;;;5015240;28;20542;-76
2021/06/05 10:51:43;;;;;;;1.83;1.57;;;26.80;43.90;;;;;;5015095;28;20532;-75
2021/06/05 10:54:15;;;;;;;1.87;1.77;;;26.70;42.90;;;;;;5015004;28;20537;-76
2021/06/05 10:56:58;;;;;;;2.77;1.80;;;26.60;42.30;;;;;;5015593;28;20553;-76
2021/06/05 10:59:42;;;;;;;2.33;1.87;;;26.70;42.20;;;;;;5015810;28;20478;-77
2021/06/05 11:02:10;;;;;;;2.67;1.50;;;26.80;42.00;;;;;;5015079;28;20498;-76
2021/06/05 11:04:45;;;;;;;2.13;1.87;;;26.80;42.90;;;;;;5014783;28;20434;-75
2021/06/05 11:07:36;;;;;;;3.07;1.80;;;26.80;42.80;;;;;;5015486;28;20939;-76
2021/06/05 11:10:06;;;;;;;9.07;2.20;;;26.60;42.10;;;;;;5000095;28;20857;-75
2021/06/05 11:12:53;;;;;;;2.43;1.53;;;26.30;44.40;;;;;;5016590;28;20465;-76
2021/06/05 11:15:51;;;;;;;1.63;1.53;;;26.40;43.90;;;;;;5014576;28;20450;-76
2021/06/05 11:18:31;;;;;;;2.30;1.50;;;26.70;41.70;;;;;;5014780;28;20958;-75
2021/06/05 11:20:59;;;;;;;2.03;1.70;;;27.00;40.70;;;;;;5015040;28;20510;-76
2021/06/05 11:23:36;;;;;;;4.43;2.13;;;26.80;41.70;;;;;;5014796;28;20421;-76
2021/06/05 11:26:32;;;;;;;3.10;1.93;;;27.00;41.70;;;;;;5015211;28;20540;-76
2021/06/05 11:28:58;;;;;;;2.10;1.90;;;27.00;41.50;;;;;;5015057;28;20452;-76
2021/06/05 11:31:53;;;;;;;1.60;1.47;;;26.80;41.50;;;;;;5014909;28;20538;-76
2021/06/05 11:34:52;;;;;;;1.93;1.83;;;26.80;41.00;;;;;;5014739;28;20475;-76
2021/06/05 11:37:45;;;;;;;2.77;1.47;;;27.40;39.90;;;;;;5015269;28;20518;-76
2021/06/05 11:40:15;;;;;;;1.70;1.60;;;27.60;38.60;;;;;;5016507;28;20502;-77
2021/06/05 11:42:53;;;;;;;1.70;1.40;;;27.90;37.70;;;;;;5021504;28;20455;-77
2021/06/05 11:45:55;;;;;;;2.43;1.80;;;27.80;38.10;;;;;;5023394;28;20460;-75
2021/06/05 11:48:54;;;;;;;2.27;1.60;;;27.90;37.40;;;;;;5000191;28;20468;-79
2021/06/05 11:51:39;;;;;;;1.90;1.70;;;27.70;38.00;;;;;;4956646;29;20466;-76
2021/06/05 11:54:19;;;;;;;1.57;1.47;;;27.40;38.90;;;;;;5025432;28;20756;-76
2021/06/05 11:56:54;;;;;;;2.07;1.60;;;26.80;40.10;;;;;;5027868;28;20493;-76
2021/06/05 11:59:27;;;;;;;2.30;1.90;;;26.60;41.30;;;;;;5016899;28;20958;-76
2021/06/05 12:01:54;;;;;;;4.30;1.80;;;26.30;41.60;;;;;;5015476;28;20976;-77
2021/06/05 12:04:26;;;;;;;2.33;1.70;;;26.40;41.80;;;;;;5014034;28;20541;-78
2021/06/05 12:06:52;;;;;;;1.30;1.20;;;26.50;41.30;;;;;;5013988;28;20441;-76
2021/06/05 12:09:22;;;;;;;2.40;1.97;;;26.60;40.40;;;;;;5013717;28;20482;-78
2021/06/05 12:11:56;;;;;;;2.47;1.83;;;26.30;40.90;;;;;;5013717;28;20463;-77
2021/06/05 12:14:39;;;;;;;1.20;1.10;;;26.00;42.00;;;;;;5013404;28;20457;-77
2021/06/05 12:17:09;;;;;;;1.50;1.40;;;25.90;43.00;;;;;;5013311;28;20464;-77
2021/06/05 12:19:36;;;;;;;2.17;1.37;;;25.70;42.60;;;;;;5013601;28;20944;-77
2021/06/05 12:22:16;;;;;;;1.50;1.40;;;25.20;43.60;;;;;;5013567;28;20526;-77
2021/06/05 12:24:47;;;;;;;2.20;1.47;;;24.30;45.40;;;;;;5012885;28;20941;-76
2021/06/05 12:27:23;;;;;;;1.03;0.93;;;23.80;46.90;;;;;;5013674;28;20553;-76
2021/06/05 12:29:50;;;;;;;0.97;0.80;;;23.40;47.00;;;;;;5013740;28;20568;-76
2021/06/05 12:32:19;;;;;;;1.17;1.17;;;23.00;47.50;;;;;;5013391;28;20545;-76
2021/06/05 12:34:46;;;;;;;0.97;0.97;;;22.60;50.20;;;;;;5013219;28;20466;-76
2021/06/05 12:37:24;;;;;;;0.93;0.83;;;22.10;52.90;;;;;;5013241;28;20460;-77
2021/06/05 12:39:53;;;;;;;1.10;0.80;;;21.80;60.20;;;;;;5013170;28;20537;-76
2021/06/05 12:42:25;;;;;;;3.10;1.17;;;21.20;68.10;;;;;;5013324;28;20553;-76
2021/06/05 12:44:54;;;;;;;1.40;1.10;;;20.80;71.60;;;;;;5013481;28;20529;-76
2021/06/05 12:47:29;;;;;;;3.90;1.00;;;20.50;74.60;;;;;;5013229;28;20898;-76
2021/06/05 12:49:56;;;;;;;0.80;0.80;;;20.40;75.90;;;;;;5013210;28;20565;-76
2021/06/05 12:52:29;;;;;;;1.20;1.10;;;20.40;75.70;;;;;;5013504;28;20456;-76
2021/06/05 12:55:14;;;;;;;1.27;0.80;;;20.30;76.20;;;;;;5013019;28;20461;-77
2021/06/05 12:57:44;;;;;;;1.70;1.00;;;20.40;76.70;;;;;;5020400;28;20502;-77
2021/06/05 13:00:22;;;;;;;2.13;1.00;;;20.40;75.70;;;;;;5018623;28;20474;-77
2021/06/05 13:02:50;;;;;;;3.33;1.20;;;20.40;75.60;;;;;;5013407;28;20923;-77
2021/06/05 13:05:19;;;;;;;2.33;1.20;;;20.50;76.10;;;;;;5012987;28;20952;-77